x

Boston 16 Nm East Of Boston, Ma (44013) Wave Buoy

2:50am - Mon 22nd Dec 2014 All times are EST. -5 hours from GMT.

  • Sig Wave height 3.3ft
  • Swell Direction
  • Peak Period 7s
  • Average Period 4s
  • Wind
    18mph, 20mph gusts
  • Sea Temp 46°f
  • Air Temp 39°f
  • Sea Pressure 1027.6mb
  • Boston 16 Nm East Of Boston, Ma
  • Boston 16 Nm East Of Boston, Ma

More Historic Weather Station data

Upgrade to MSW Pro to gain access to the past 30 days of data for over 8000 Wavebouys and Weather Stations around the globe.

Join Pro

Comparision Forecast

View Surf forecast
   
Mon 12/22 2:50am 3.5ft 7s 4s 18 20 mph 1027.6mb 46f 39f
1:50am 3.5ft 8s 4s 18 20 mph 1027.6mb 46f 40f
12:50am 3.5ft 8s 4s 16 18 mph 1027.2mb 46f 41f
Sun 12/21 11:50pm 3.5ft 7s 5s 16 18 mph 1027.5mb 46f 40f
10:50pm 4ft 8s 5s 18 20 mph 1027.4mb 45f 39f
9:50pm 4ft 5s 5s 18 20 mph 1027.2mb 45f 38f
8:50pm 4ft 8s 5s 18 20 mph 1027.1mb 45f 38f
7:50pm 3.5ft 8s 4s 18 22 mph 1027mb 45f 39f
6:50pm 4ft 6s 4s 20 22 mph 1026.8mb 45f 39f
5:50pm 4ft 6s 4s 20 25 mph 1026.5mb 45f 38f
4:50pm 4ft 6s 4s 20 25 mph 1026.1mb 45f 37f
3:50pm 3.5ft 6s 4s 20 25 mph 1025.9mb 45f 37f
2:50pm 3.5ft 6s 4s 18 22 mph 1025.8mb 45f 37f
1:50pm 4ft 6s 4s 18 20 mph 1025.5mb 45f 36f
12:50pm 4.5ft 6s 5s 18 20 mph 1025.3mb 45f 37f
11:50am 4ft 6s 4s 20 22 mph 1025.3mb 46f 37f
10:50am 4.5ft 6s 4s 22 27 mph 1025.6mb 45f 36f
9:50am 4.5ft 6s 4s 22 27 mph 1026.1mb 45f 36f
8:50am 4.5ft 6s 4s 22 27 mph 1025.9mb 45f 35f
7:50am 4.5ft 6s 5s 18 20 mph 1026mb 45f 37f
6:50am 4.5ft 6s 5s 18 22 mph 1025.8mb 45f 38f
5:50am 5ft 6s 5s 18 22 mph 1025.3mb 45f 38f
4:50am 4.5ft 6s 5s 18 22 mph 1025mb 45f 38f
3:50am 4.5ft 6s 4s 18 25 mph 1025.2mb 45f 38f
2:50am 4.5ft 6s 4s 20 25 mph 1025mb 45f 38f
1:50am 4ft 6s 4s 22 25 mph 1025mb 46f 37f
12:50am 4.5ft 5s 5s 20 25 mph 1024.9mb 46f 38f
Sat 12/20 11:50pm 4.5ft 6s 5s 20 22 mph 1025mb 46f 38f
10:50pm 5.5ft 6s 5s 20 25 mph 1025.1mb 46f 38f
9:50pm 5ft 6s 5s 22 27 mph 1024.8mb 46f 38f
8:50pm 5ft 6s 4s 22 27 mph 1025.2mb 46f 38f
7:50pm 4.5ft 6s 4s 22 25 mph 1025.3mb 45f 38f
6:50pm 4.5ft 6s 5s 22 25 mph 1025mb 45f 38f
5:50pm 4.5ft 6s 4s 22 29 mph 1024.7mb 45f 38f
4:50pm 3.5ft 5s 4s 18 22 mph 1024.6mb 45f 38f
3:50pm 3.5ft 6s 4s 18 22 mph 1024.5mb 45f 38f
2:50pm 3.5ft 6s 4s 22 27 mph 1024.1mb 45f 35f
1:50pm 3.5ft 6s 4s 22 27 mph 1024.1mb 45f 34f
12:50pm 3ft 4s 4s 20 25 mph 1024.1mb 45f 33f
11:50am 3ft 3s 4s 22 27 mph 1023.9mb 45f 33f
10:50am 3.5ft 6s 4s 22 27 mph 1024.4mb 45f 33f
9:50am 3.5ft 6s 4s 20 25 mph 1024.9mb 46f 33f
8:50am 3.5ft 6s 4s 18 20 mph 1024.6mb 46f 34f
7:50am 3.5ft 6s 4s 11 16 mph 1024.3mb 45f 36f
6:50am 3.5ft 5s 4s 13 18 mph 1023.4mb 45f 36f
5:50am 3ft 5s 4s 16 20 mph 1022.7mb 45f 35f
4:50am 2.5ft 5s 4s 16 20 mph 1022.3mb 45f 34f
3:50am 2.5ft 5s 4s 20 22 mph 1021.5mb 45f 35f
2:50am 2.5ft 3s 3s 18 20 mph 1021.6mb 45f 35f
1:50am 2ft 3s 3s 18 20 mph 1021.3mb 45f 33f
12:50am 2ft 3s 3s 16 20 mph 1020.8mb 45f 33f
Fri 12/19 11:50pm 1.6ft 3s 3s 13 18 mph 1020.2mb 45f 32f
10:50pm 2ft 3s 3s 13 16 mph 1020mb 45f 32f
9:50pm 2ft 3s 3s 13 18 mph 1019.8mb 45f 33f
8:50pm 2.5ft 4s 3s 16 20 mph 1018.7mb 45f 33f
7:50pm 2.5ft 3s 3s 18 22 mph 1018.1mb 45f 33f
6:50pm 2.5ft 4s 3s 18 20 mph 1017.5mb 45f 33f
5:50pm 2.5ft 3s 3s 20 25 mph 1016.8mb 45f 34f
4:50pm 1.6ft 3s 3s 16 20 mph 1016.2mb 45f 36f
3:50pm 1.3ft 11s 4s 11 16 mph 1015.4mb 45f 36f
2:50pm 1.6ft 11s 4s 9 11 mph 1014.9mb 45f 36f
1:50pm 1.6ft 3s 4s 11 16 mph 1014.1mb 45f 35f
12:50pm 2ft 4s 3s 13 16 mph 1014mb 45f 35f
11:50am 2ft 4s 3s 13 18 mph 1013.8mb 45f 35f
10:50am 2.5ft 4s 4s 16 20 mph 1014mb 45f 35f
9:50am 2.5ft 3s 3s 18 22 mph 1013.8mb 45f 35f
8:50am 2.5ft 4s 3s 20 25 mph 1013.3mb 45f 35f
7:50am 2.5ft 4s 3s 22 29 mph 1012.4mb 45f 35f
6:50am 2.5ft 4s 3s 22 29 mph 1012mb 45f 35f
5:50am 2.5ft 3s 3s 20 27 mph 1011.6mb 45f 35f
4:50am 2.5ft 3s 3s 18 22 mph 1011.2mb 45f 36f
3:50am 2.5ft 3s 3s 20 25 mph 1011.2mb 45f 36f
2:50am 2.5ft 4s 3s 20 22 mph 1011mb 45f 37f
1:50am 2.5ft 3s 3s 20 25 mph 1010.9mb 45f 38f
12:50am 2.5ft 3s 3s 20 27 mph 1010.5mb 45f 38f
Thu 12/18 11:50pm 2.5ft 3s 3s 18 25 mph 1010.7mb 45f 38f
10:50pm 2.5ft 3s 3s 18 25 mph 1010.4mb 45f 39f
9:50pm 2.5ft 3s 3s 25 27 mph 1009.8mb 45f 39f
8:50pm  -   -   -  22 27 mph 1009.8mb 45f 40f
7:50pm 2.5ft 4s 4s 20 22 mph 1010.1mb 45f 40f
6:50pm 3ft 4s 4s 20 25 mph 1009.9mb 45f 41f
5:50pm 3ft 4s 4s 22 27 mph 1009.3mb 45f 42f
4:50pm 3ft 4s 4s 22 27 mph 1008.9mb 45f 42f
3:50pm 3ft 4s 4s 20 25 mph 1008.6mb 45f 42f
2:50pm 3.5ft 4s 4s 22 27 mph 1007.9mb 45f 42f
1:50pm 3.5ft 4s 4s 22 27 mph 1007.3mb 44f 42f
12:50pm 3.5ft 4s 4s 25 29 mph 1007mb 44f 42f
11:50am 3.5ft 4s 4s 27 31 mph 1006.9mb 44f 42f
10:50am 3.5ft 4s 4s 27 31 mph 1007.1mb 44f 40f
9:50am 4ft 4s 4s 25 31 mph 1007.4mb 45f 39f
8:50am 4ft 4s 4s 27 36 mph 1006.9mb 45f 38f